Portada
METAR-TAF:

METAR-TAF

Aeropuertos :

Aeropuerto Internacional Malvinas Argentinas

Ushuaia, Argentina

latitud: 54-48S, longitud: 068-19W, altitud: 16 m

Observación

El informe se hizo hace 22 minutos, a las 01:00 UTC
Viento 6 kt del sureste
Temperatura 7°C
Humedad 61%
Presión 1000 hPa
Visibilidad 10 km o más
Nubes dispersas a una altura de 4500 ft
Nubes dispersas a una altura de 10000 ft

METAR: SAWH 200100Z 14006KT 9999 SCT045 SCT100 07/00 Q1000

Hora: 22:22 (01:22 UTC)

Pronóstico

El informe se hizo hace 2 horas y 22 minutos, a las 23:00 UTC
Pronóstico válido del 20 a las 00 UTC al 20 a las 24 UTC
Viento 18 kt del noroeste con ráfagas de 40 kt
Visibilidad 10 km o más
Nubes dispersas a una altura de 3000 ft
Cielo nuboso a una altura de 9000 ft
Evolucionando progresivamente
del 20 a las 18 UTC al 20 a las 20 UTC
Viento 15 kt del noroeste

TAF: SAWH 192300Z 2000/2024 32018G40KT 9999 SCT030 BKN090 TX12/2018Z TN05/2011Z BECMG 2018/2020 32015KT

Observaciones y pronósticos meteorológicos de más de 4000 aeropuertos (mensajes METAR y TAF).

Los puntos amarillos y rojos representan las estaciones disponibles.

Ponga el ratón en el punto deseado para ver el nombre de la estación.

Haga clic para ver las observaciones y los pronósticos meteorológicos.

Para cambiar el mapa : haga clic en los botones verdes con una cruz de color negro para hacer un zoom, en el botón verde con un guión para alejar o en las flechas verdes para mapas adyacentes.


METAR-TAF: